createdAt,value
2018-11-22T12:16:13.373Z,20.17
2018-11-22T12:18:44.643Z,20.00
2018-11-22T12:21:16.055Z,24.17
2018-11-22T12:23:46.973Z,22.73
2018-11-22T12:26:18.195Z,19.33
2018-11-22T12:28:49.235Z,20.93
2018-11-22T12:31:20.079Z,20.70
2018-11-22T12:33:55.685Z,21.37
2018-11-22T12:36:30.402Z,20.73
2018-11-22T12:39:01.811Z,20.50
2018-11-22T12:41:33.013Z,22.17
2018-11-22T12:44:03.934Z,20.30
2018-11-22T12:46:34.913Z,23.27
2018-11-22T12:49:06.537Z,21.57
2018-11-22T12:51:37.594Z,21.97
2018-11-22T12:54:08.894Z,23.10
2018-11-22T12:56:40.035Z,22.03
2018-11-22T12:59:11.274Z,22.20
2018-11-22T13:01:42.074Z,23.57
2018-11-22T13:04:13.054Z,21.17
2018-11-22T13:06:43.854Z,20.07
2018-11-22T13:09:16.094Z,23.10
2018-11-22T13:11:47.778Z,21.00
2018-11-22T13:14:18.398Z,22.10
2018-11-22T13:16:49.226Z,19.87
2018-11-22T13:19:20.095Z,20.07
2018-11-22T13:21:50.976Z,17.50
2018-11-22T13:24:22.435Z,26.33
2018-11-22T13:26:53.414Z,21.33
2018-11-22T13:29:25.375Z,18.80
2018-11-22T13:31:56.238Z,17.40
2018-11-22T13:34:29.728Z,19.90
2018-11-22T13:37:00.774Z,17.20
2018-11-22T13:39:32.136Z,17.87
2018-11-22T13:42:03.497Z,18.10
2018-11-22T13:44:35.374Z,19.07
2018-11-22T13:47:07.033Z,20.27
2018-11-22T13:49:38.092Z,19.77
2018-11-22T13:52:08.837Z,21.13
2018-11-22T13:54:39.873Z,20.10
2018-11-22T13:57:10.522Z,21.57
2018-11-22T13:59:42.335Z,23.33
2018-11-22T14:02:13.377Z,20.73
2018-11-22T14:04:44.455Z,18.60
2018-11-22T14:07:16.694Z,19.73
2018-11-22T14:09:47.508Z,19.63
2018-11-22T14:12:18.512Z,19.37
2018-11-22T14:14:49.367Z,18.30
2018-11-22T14:17:21.074Z,23.30
2018-11-22T14:19:52.194Z,23.80
2018-11-22T14:22:23.944Z,22.90
2018-11-22T14:24:55.095Z,20.60
2018-11-22T14:27:26.100Z,19.43
2018-11-22T14:29:57.176Z,20.63
2018-11-22T14:32:28.115Z,24.17
2018-11-22T14:35:00.621Z,22.43
2018-11-22T14:37:30.834Z,18.57
2018-11-22T14:40:01.762Z,18.27
2018-11-22T14:42:32.695Z,26.53
2018-11-22T14:45:03.262Z,20.23
2018-11-22T14:47:34.657Z,18.87
2018-11-22T14:50:09.494Z,19.93
2018-11-22T14:52:41.594Z,19.37
2018-11-22T14:55:13.317Z,17.57
2018-11-22T14:57:45.214Z,18.03
2018-11-22T15:00:17.216Z,18.90
2018-11-22T15:02:48.734Z,18.50
2018-11-22T15:05:19.935Z,18.37
2018-11-22T15:07:50.907Z,16.90
2018-11-22T15:10:21.575Z,17.83
2018-11-22T15:12:52.722Z,16.17
2018-11-22T15:15:24.761Z,16.87
2018-11-22T15:17:55.797Z,19.27
2018-11-22T15:20:26.757Z,17.20
2018-11-22T15:22:58.536Z,16.10
2018-11-22T15:25:31.495Z,17.07
2018-11-22T15:28:02.815Z,18.27
2018-11-22T15:30:33.348Z,17.83
2018-11-22T15:33:04.642Z,18.17
2018-11-22T15:35:35.656Z,17.37
2018-11-22T15:38:06.995Z,18.70
2018-11-22T15:40:38.334Z,17.37
2018-11-22T15:43:09.521Z,19.27
2018-11-22T15:45:41.000Z,19.47
2018-11-22T15:48:12.814Z,18.23
2018-11-22T15:50:43.759Z,16.67
2018-11-22T15:53:15.680Z,19.97
2018-11-22T15:55:47.030Z,21.97
2018-11-22T15:58:18.794Z,21.87
2018-11-22T16:00:50.177Z,20.07
2018-11-22T16:03:21.444Z,20.03
2018-11-22T16:05:52.675Z,16.77
2018-11-22T16:08:23.934Z,16.57
2018-11-22T16:10:54.831Z,16.23
2018-11-22T16:13:25.701Z,19.87
2018-11-22T16:15:56.328Z,17.17
2018-11-22T16:18:27.354Z,16.53
2018-11-22T16:20:58.492Z,17.87
2018-11-22T16:23:29.515Z,16.70
2018-11-22T16:26:02.254Z,19.37
2018-11-22T16:28:33.294Z,16.67
2018-11-22T16:31:03.975Z,17.13
2018-11-22T16:33:35.016Z,17.03
2018-11-22T16:36:06.974Z,17.30
2018-11-22T16:38:37.686Z,17.10
2018-11-22T16:41:09.754Z,15.47
2018-11-22T16:43:41.114Z,14.73
2018-11-22T16:46:12.442Z,16.57
2018-11-22T16:48:43.493Z,15.27
2018-11-22T16:51:14.833Z,13.30
2018-11-22T16:53:46.135Z,17.97
2018-11-22T16:56:16.996Z,16.67
2018-11-22T16:58:47.960Z,15.10
2018-11-22T17:01:19.236Z,15.83
2018-11-22T17:03:51.034Z,17.67
2018-11-22T17:06:22.696Z,14.90
2018-11-22T17:08:53.734Z,15.23
2018-11-22T17:11:24.850Z,14.60
2018-11-22T17:13:55.468Z,17.63
2018-11-22T17:16:26.272Z,14.80
2018-11-22T17:18:57.795Z,13.57
2018-11-22T17:21:28.795Z,16.13
2018-11-22T17:23:59.994Z,15.37
2018-11-22T17:26:31.033Z,14.73
2018-11-22T17:29:02.095Z,15.83
2018-11-22T17:31:33.533Z,14.87
2018-11-22T17:34:04.794Z,15.07
2018-11-22T17:36:35.472Z,16.13
2018-11-22T17:39:11.013Z,13.67
2018-11-22T17:41:42.063Z,18.13
2018-11-22T17:44:13.334Z,15.50
2018-11-22T17:46:44.495Z,15.13
2018-11-22T17:49:15.413Z,20.07
2018-11-22T17:51:47.152Z,14.90
2018-11-22T17:54:19.154Z,17.83
2018-11-22T17:56:50.533Z,18.47
2018-11-22T17:59:21.621Z,13.40
2018-11-22T18:01:52.574Z,17.70
2018-11-22T18:04:23.673Z,16.67
2018-11-22T18:06:54.653Z,13.57
2018-11-22T18:09:26.049Z,23.97
2018-11-22T18:12:02.293Z,23.87
2018-11-22T18:14:33.553Z,19.47
2018-11-22T18:17:04.972Z,18.27
2018-11-22T18:19:36.596Z,17.43
2018-11-22T18:22:07.573Z,16.13
2018-11-22T18:24:38.733Z,17.27
2018-11-22T18:27:09.353Z,15.47
2018-11-22T18:29:40.435Z,15.93
2018-11-22T18:32:12.429Z,18.00
2018-11-22T18:34:44.153Z,16.07
2018-11-22T18:37:15.292Z,17.93
2018-11-22T18:39:47.535Z,19.97
2018-11-22T18:42:20.695Z,31.60
2018-11-22T18:44:51.459Z,34.80
2018-11-22T18:47:23.892Z,30.40
2018-11-22T18:49:55.407Z,29.83
2018-11-22T18:52:26.409Z,32.70
2018-11-22T18:54:58.597Z,28.40
2018-11-22T18:57:29.553Z,26.73
2018-11-22T19:00:00.633Z,19.93
2018-11-22T19:02:31.781Z,19.40
2018-11-22T19:05:03.254Z,16.47
2018-11-22T19:07:34.421Z,14.43
2018-11-22T19:10:06.393Z,15.73
2018-11-22T19:12:38.454Z,12.47
2018-11-22T19:15:13.524Z,14.83
2018-11-22T19:17:45.140Z,15.10
2018-11-22T19:20:18.734Z,14.57
2018-11-22T19:22:49.979Z,18.37
2018-11-22T19:25:22.455Z,14.87
2018-11-22T19:27:57.368Z,13.00
2018-11-22T19:30:37.721Z,12.23
2018-11-22T19:33:03.793Z,11.87
2018-11-22T19:35:37.590Z,12.03
2018-11-22T19:38:09.155Z,13.13
2018-11-22T19:40:41.213Z,11.87
2018-11-22T19:43:13.113Z,12.40
2018-11-22T19:45:45.873Z,14.17
2018-11-22T19:48:17.635Z,12.47
2018-11-22T19:50:48.973Z,11.90
2018-11-22T19:53:33.014Z,11.97
2018-11-22T19:56:04.142Z,13.93
2018-11-22T19:58:35.473Z,12.23
2018-11-22T20:01:07.696Z,12.93
2018-11-22T20:03:37.704Z,12.40
2018-11-22T20:06:09.534Z,12.90
2018-11-22T20:08:44.196Z,11.93
2018-11-22T20:11:16.394Z,12.33
2018-11-22T20:13:47.852Z,12.37
2018-11-22T20:16:23.894Z,10.90
2018-11-22T20:18:55.011Z,13.20
2018-11-22T20:21:27.677Z,10.70
2018-11-22T20:23:57.879Z,12.07
2018-11-22T20:26:30.033Z,11.30
2018-11-22T20:29:01.033Z,10.83
2018-11-22T20:31:32.116Z,10.63
2018-11-22T20:34:03.775Z,10.03
2018-11-22T20:36:34.816Z,10.57
2018-11-22T20:39:09.656Z,10.07
2018-11-22T20:41:41.734Z,10.07
2018-11-22T20:44:12.653Z,9.60
2018-11-22T20:46:44.100Z,9.30
2018-11-22T20:49:14.753Z,9.57
2018-11-22T20:51:46.213Z,10.20
2018-11-22T20:54:18.194Z,9.60
2018-11-22T20:56:50.500Z,8.87
2018-11-22T20:59:21.854Z,9.60
2018-11-22T21:01:52.765Z,9.47
2018-11-22T21:04:24.273Z,9.53
2018-11-22T21:06:55.288Z,9.57
2018-11-22T21:09:26.145Z,9.93
2018-11-22T21:11:59.113Z,9.10
2018-11-22T21:14:30.412Z,10.00
2018-11-22T21:17:01.715Z,9.17
2018-11-22T21:19:33.073Z,8.93
2018-11-22T21:22:04.333Z,9.60
2018-11-22T21:24:35.282Z,10.23
2018-11-22T21:27:06.454Z,9.80
2018-11-22T21:29:37.425Z,9.83
2018-11-22T21:32:09.594Z,10.80
2018-11-22T21:34:41.819Z,9.60
2018-11-22T21:37:13.233Z,9.63
2018-11-22T21:39:44.253Z,10.83
2018-11-22T21:42:15.336Z,9.97
2018-11-22T21:44:47.354Z,8.57
2018-11-22T21:47:18.534Z,8.47
2018-11-22T21:49:49.233Z,9.77
2018-11-22T21:52:20.337Z,8.13
2018-11-22T21:54:51.193Z,8.23
2018-11-22T21:57:22.172Z,7.93
2018-11-22T21:59:53.053Z,9.00
2018-11-22T22:02:24.253Z,7.47
2018-11-22T22:04:56.915Z,9.07
2018-11-22T22:07:27.752Z,7.23
2018-11-22T22:09:59.313Z,8.13
2018-11-22T22:12:30.170Z,8.23
2018-11-22T22:15:01.307Z,8.23
2018-11-22T22:17:32.159Z,8.60
2018-11-22T22:20:04.096Z,8.77
2018-11-22T22:22:35.493Z,9.30
2018-11-22T22:25:07.793Z,8.57
2018-11-22T22:27:39.833Z,8.97
2018-11-22T22:30:13.993Z,8.03
2018-11-22T22:32:45.574Z,8.27
2018-11-22T22:35:17.376Z,8.93
2018-11-22T22:37:48.333Z,8.97
2018-11-22T22:40:20.808Z,8.20
2018-11-22T22:42:54.093Z,8.33
2018-11-22T22:45:26.359Z,7.67
2018-11-22T22:47:57.349Z,7.87
2018-11-22T22:50:29.688Z,8.73
2018-11-22T22:53:01.654Z,8.03
2018-11-22T22:55:32.896Z,8.63
2018-11-22T22:58:04.414Z,7.17
2018-11-22T23:00:39.393Z,8.03
2018-11-22T23:03:10.353Z,7.50
2018-11-22T23:05:41.346Z,7.70
2018-11-22T23:08:12.133Z,8.13
2018-11-22T23:10:43.515Z,7.73
2018-11-22T23:13:14.665Z,8.50
2018-11-22T23:15:46.173Z,7.40
2018-11-22T23:18:17.395Z,8.97
2018-11-22T23:20:49.882Z,7.67
2018-11-22T23:23:21.153Z,8.57
2018-11-22T23:25:52.295Z,8.10
2018-11-22T23:28:23.074Z,8.27
2018-11-22T23:30:53.780Z,8.13
2018-11-22T23:33:24.493Z,7.33
2018-11-22T23:35:55.454Z,7.00
2018-11-22T23:38:26.518Z,8.27
2018-11-22T23:40:57.795Z,7.90
2018-11-22T23:43:28.920Z,9.43
2018-11-22T23:45:59.930Z,7.73
2018-11-22T23:48:30.853Z,7.87
2018-11-22T23:51:02.356Z,9.37
2018-11-22T23:53:33.421Z,8.87
2018-11-22T23:56:04.098Z,8.80
2018-11-22T23:58:34.953Z,9.57
